Pine Woods, New York
Current Conditions -  °F | °C
As of 7:53 PM on Monday 20 Oct 2014 (Local Time) from KRME Reporting Station
Overcast Overcast  
Wind Chill: 50°   Ceiling: 7000
Heat Index: 50°   Visibility: 10mi
Dew Point: 41°   Wind: 5mph
Humidity: 71%   Direction: 110°ESE
Pressure: 29.91"   Gusts: NA
Location:  42.9°N, 75.5716°W
Report Text: KRME 202353Z 11004KT 10SM OVC070 10/05 A2991 RMK AO2 SLP130 T01000050 10117 20094 50001
Loading
Personal Weather Stations






























Interactive Weather Map
Tropical Storm Tracking
New forecast layout! Learn more

10-Day Weather Forecast

Advertisements
Track Severe Weather on mobile